createdAt,value
2018-08-17T00:01:28.931Z,9.83
2018-08-17T00:03:53.518Z,9.90
2018-08-17T00:06:17.453Z,10.00
2018-08-17T00:08:41.384Z,10.27
2018-08-17T00:11:05.403Z,9.80
2018-08-17T00:13:29.747Z,10.87
2018-08-17T00:15:53.611Z,10.53
2018-08-17T00:18:17.569Z,10.80
2018-08-17T00:20:41.495Z,10.33
2018-08-17T00:23:05.586Z,11.83
2018-08-17T00:25:29.521Z,11.40
2018-08-17T00:27:53.438Z,12.30
2018-08-17T00:30:17.333Z,11.83
2018-08-17T00:32:41.223Z,12.23
2018-08-17T00:35:05.119Z,12.83
2018-08-17T00:37:29.027Z,12.23
2018-08-17T00:39:52.980Z,14.10
2018-08-17T00:42:16.851Z,12.60
2018-08-17T00:44:40.764Z,13.80
2018-08-17T00:47:04.631Z,14.57
2018-08-17T00:49:28.538Z,14.53
2018-08-17T00:51:52.387Z,13.77
2018-08-17T00:54:16.296Z,13.87
2018-08-17T00:56:40.142Z,14.87
2018-08-17T00:59:04.059Z,15.13
2018-08-17T01:01:27.939Z,14.30
2018-08-17T01:03:51.889Z,14.10
2018-08-17T01:06:15.751Z,14.07
2018-08-17T01:08:39.649Z,13.97
2018-08-17T01:11:03.537Z,14.83
2018-08-17T01:13:27.454Z,14.33
2018-08-17T01:15:51.310Z,14.53
2018-08-17T01:18:15.218Z,14.70
2018-08-17T01:20:39.120Z,14.37
2018-08-17T01:23:03.023Z,15.70
2018-08-17T01:25:26.944Z,15.10
2018-08-17T01:27:50.788Z,13.93
2018-08-17T01:30:14.663Z,14.53
2018-08-17T01:32:38.847Z,15.57
2018-08-17T01:35:02.762Z,13.77
2018-08-17T01:37:26.605Z,14.63
2018-08-17T01:39:50.697Z,14.10
2018-08-17T01:42:14.566Z,15.60
2018-08-17T01:44:38.454Z,15.23
2018-08-17T01:47:02.404Z,15.23
2018-08-17T01:49:26.256Z,14.60
2018-08-17T01:51:50.164Z,15.30
2018-08-17T01:54:14.084Z,15.23
2018-08-17T01:56:44.266Z,15.53
2018-08-17T01:59:08.243Z,15.50
2018-08-17T02:01:38.780Z,15.67
2018-08-17T02:04:02.651Z,16.13
2018-08-17T02:06:26.523Z,19.63
2018-08-17T02:08:50.433Z,16.17
2018-08-17T02:11:14.318Z,16.33
2018-08-17T02:13:38.178Z,17.20
2018-08-17T02:16:02.043Z,17.47
2018-08-17T02:18:25.911Z,16.17
2018-08-17T02:20:49.831Z,16.53
2018-08-17T02:23:13.704Z,17.63
2018-08-17T02:25:37.586Z,17.37
2018-08-17T02:28:01.437Z,28.27
2018-08-17T02:30:25.342Z,17.20
2018-08-17T02:32:49.206Z,17.47
2018-08-17T02:35:13.050Z,17.13
2018-08-17T02:37:36.950Z,17.40
2018-08-17T02:40:00.840Z,17.73
2018-08-17T02:42:24.759Z,18.00
2018-08-17T02:44:48.676Z,16.90
2018-08-17T02:47:12.582Z,17.83
2018-08-17T02:49:36.425Z,17.40
2018-08-17T02:52:00.345Z,16.87
2018-08-17T02:54:24.292Z,17.70
2018-08-17T02:56:48.123Z,17.87
2018-08-17T02:59:12.047Z,16.90
2018-08-17T03:01:35.918Z,16.87
2018-08-17T03:04:00.165Z,17.37
2018-08-17T03:06:24.368Z,17.67
2018-08-17T03:08:48.287Z,16.97
2018-08-17T03:11:12.167Z,17.07
2018-08-17T03:13:36.090Z,17.87
2018-08-17T03:15:59.950Z,17.30
2018-08-17T03:18:23.921Z,17.97
2018-08-17T03:20:47.844Z,16.97
2018-08-17T03:23:11.775Z,16.90
2018-08-17T03:25:35.752Z,17.37
2018-08-17T03:27:59.658Z,16.27
2018-08-17T03:30:23.556Z,15.70
2018-08-17T03:32:47.443Z,16.40
2018-08-17T03:35:11.347Z,16.83
2018-08-17T03:37:35.203Z,16.80
2018-08-17T03:39:59.102Z,17.03
2018-08-17T03:42:23.168Z,15.60
2018-08-17T03:44:47.042Z,17.53
2018-08-17T03:47:10.896Z,15.87
2018-08-17T03:49:34.834Z,16.27
2018-08-17T03:51:58.749Z,15.87
2018-08-17T03:54:22.578Z,15.97
2018-08-17T03:56:46.510Z,16.27
2018-08-17T03:59:10.481Z,16.97
2018-08-17T04:01:34.368Z,15.57
2018-08-17T04:03:58.291Z,15.77
2018-08-17T04:06:22.184Z,16.37
2018-08-17T04:08:46.041Z,16.93
2018-08-17T04:11:09.998Z,15.70
2018-08-17T04:13:33.876Z,15.63
2018-08-17T04:15:57.728Z,16.20
2018-08-17T04:18:21.650Z,15.47
2018-08-17T04:20:45.498Z,16.70
2018-08-17T04:23:09.414Z,16.20
2018-08-17T04:25:33.541Z,16.03
2018-08-17T04:27:57.462Z,16.10
2018-08-17T04:30:21.325Z,16.03
2018-08-17T04:32:45.212Z,15.43
2018-08-17T04:35:09.096Z,16.60
2018-08-17T04:37:33.024Z,16.63
2018-08-17T04:39:56.951Z,15.30
2018-08-17T04:42:20.859Z,15.67
2018-08-17T04:44:44.728Z,15.40
2018-08-17T04:47:08.879Z,15.53
2018-08-17T04:49:32.782Z,15.70
2018-08-17T04:51:56.706Z,14.90
2018-08-17T04:54:20.791Z,16.00
2018-08-17T04:56:44.657Z,15.43
2018-08-17T04:59:08.538Z,14.90
2018-08-17T05:01:32.564Z,15.40
2018-08-17T05:03:56.433Z,16.30
2018-08-17T05:06:20.283Z,18.90
2018-08-17T05:08:44.312Z,16.73
2018-08-17T05:11:08.170Z,16.33
2018-08-17T05:13:32.042Z,17.27
2018-08-17T05:15:55.964Z,17.33
2018-08-17T05:18:19.835Z,17.43
2018-08-17T05:20:43.730Z,18.00
2018-08-17T05:23:07.684Z,18.53
2018-08-17T05:25:31.567Z,17.97
2018-08-17T05:27:55.452Z,19.50
2018-08-17T05:30:19.417Z,17.60
2018-08-17T05:32:43.283Z,17.63
2018-08-17T05:35:07.316Z,17.40
2018-08-17T05:37:31.318Z,16.77
2018-08-17T05:39:55.380Z,17.30
2018-08-17T05:42:19.282Z,17.73
2018-08-17T05:44:43.236Z,15.43
2018-08-17T05:47:07.164Z,15.27
2018-08-17T05:49:31.074Z,16.87
2018-08-17T05:51:54.976Z,16.30
2018-08-17T05:54:18.875Z,16.60
2018-08-17T05:56:42.835Z,16.27
2018-08-17T05:59:06.680Z,16.37
2018-08-17T06:01:30.570Z,16.57
2018-08-17T06:03:54.417Z,16.10
2018-08-17T06:06:18.343Z,14.83
2018-08-17T06:08:42.247Z,15.27
2018-08-17T06:11:06.227Z,15.27
2018-08-17T06:13:29.991Z,14.17
2018-08-17T06:15:53.858Z,15.27
2018-08-17T06:18:17.736Z,15.30
2018-08-17T06:20:41.607Z,15.30
2018-08-17T06:23:05.509Z,16.00
2018-08-17T06:25:29.390Z,15.63
2018-08-17T06:27:53.309Z,17.13
2018-08-17T06:30:17.174Z,16.30
2018-08-17T06:32:41.217Z,15.90
2018-08-17T06:35:05.894Z,16.10
2018-08-17T06:37:29.756Z,16.73
2018-08-17T06:39:53.630Z,14.93
2018-08-17T06:42:17.525Z,15.73
2018-08-17T06:44:41.629Z,15.47
2018-08-17T06:47:05.623Z,14.47
2018-08-17T06:49:29.563Z,13.97
2018-08-17T06:51:53.457Z,13.80
2018-08-17T06:54:17.327Z,14.33
2018-08-17T06:56:41.245Z,13.23
2018-08-17T06:59:05.580Z,14.30
2018-08-17T07:01:29.467Z,14.13
2018-08-17T07:03:53.431Z,14.30
2018-08-17T07:06:17.335Z,15.73
2018-08-17T07:08:41.217Z,15.40
2018-08-17T07:11:05.169Z,15.47
2018-08-17T07:13:29.027Z,15.60
2018-08-17T07:15:52.902Z,15.33
2018-08-17T07:18:16.812Z,13.80
2018-08-17T07:20:40.657Z,13.60
2018-08-17T07:23:04.525Z,14.27
2018-08-17T07:25:28.447Z,13.37
2018-08-17T07:27:52.424Z,12.40
2018-08-17T07:30:16.152Z,13.33
2018-08-17T07:32:40.352Z,14.57
2018-08-17T07:35:05.014Z,15.07
2018-08-17T07:37:28.867Z,14.20
2018-08-17T07:39:52.941Z,14.87
2018-08-17T07:42:16.861Z,15.00
2018-08-17T07:44:40.972Z,14.30
2018-08-17T07:47:04.911Z,15.53
2018-08-17T07:49:28.769Z,14.63
2018-08-17T07:51:52.624Z,13.67
2018-08-17T07:54:16.535Z,13.03
2018-08-17T07:56:40.404Z,12.87
2018-08-17T07:59:04.337Z,13.17
2018-08-17T08:01:28.254Z,13.30
2018-08-17T08:03:52.255Z,13.33
2018-08-17T08:06:16.142Z,12.60
2018-08-17T08:08:40.040Z,12.80
2018-08-17T08:11:04.150Z,13.23
2018-08-17T08:13:27.984Z,11.87
2018-08-17T08:15:51.913Z,12.27
2018-08-17T08:18:16.020Z,11.90
2018-08-17T08:20:42.161Z,12.20
2018-08-17T08:23:17.283Z,9.90
2018-08-17T08:25:41.447Z,8.30
2018-08-17T08:28:05.329Z,7.97
2018-08-17T08:30:29.248Z,7.20
2018-08-17T08:32:53.092Z,9.70
2018-08-17T08:35:17.010Z,10.43
2018-08-17T08:37:40.926Z,9.40
2018-08-17T08:40:05.457Z,9.27
2018-08-17T08:42:29.352Z,9.90
2018-08-17T08:44:53.538Z,9.20
2018-08-17T08:47:17.412Z,8.60
2018-08-17T08:49:41.278Z,8.50
2018-08-17T08:52:05.312Z,7.37
2018-08-17T08:54:29.150Z,8.17
2018-08-17T08:56:53.002Z,8.40
2018-08-17T08:59:16.903Z,8.80
2018-08-17T09:01:40.855Z,8.27
2018-08-17T09:04:04.800Z,8.00
2018-08-17T09:06:28.875Z,8.03
2018-08-17T09:08:52.728Z,7.37
2018-08-17T09:11:16.595Z,7.27
2018-08-17T09:13:40.547Z,6.10
2018-08-17T09:16:04.430Z,5.60
2018-08-17T09:18:28.279Z,5.40
2018-08-17T09:20:52.180Z,4.77
2018-08-17T09:23:16.067Z,6.17
2018-08-17T09:25:39.926Z,4.80
2018-08-17T09:28:03.836Z,5.93
2018-08-17T09:30:27.706Z,5.23
2018-08-17T09:32:51.542Z,5.47
2018-08-17T09:35:15.450Z,5.60
2018-08-17T09:37:39.526Z,4.90
2018-08-17T09:40:03.446Z,5.00
2018-08-17T09:42:27.363Z,5.40
2018-08-17T09:44:51.285Z,5.90
2018-08-17T09:47:15.183Z,5.37
2018-08-17T09:49:39.040Z,4.77
2018-08-17T09:52:02.896Z,5.00
2018-08-17T09:54:26.759Z,4.77
2018-08-17T09:56:50.620Z,4.87
2018-08-17T09:59:14.527Z,4.53
2018-08-17T10:01:43.749Z,4.03
2018-08-17T10:04:13.007Z,4.27
2018-08-17T10:06:42.211Z,3.67
2018-08-17T10:09:11.744Z,4.13
2018-08-17T10:11:35.630Z,4.23
2018-08-17T10:13:59.471Z,3.73
2018-08-17T10:16:23.332Z,4.03
2018-08-17T10:18:47.223Z,3.00
2018-08-17T10:21:11.315Z,3.30
2018-08-17T10:23:35.120Z,3.07
2018-08-17T10:25:59.011Z,3.80
2018-08-17T10:28:22.848Z,3.30
2018-08-17T10:30:46.712Z,3.47
2018-08-17T10:33:11.241Z,3.37
2018-08-17T10:35:36.383Z,5.23
2018-08-17T10:38:01.551Z,3.63
2018-08-17T10:40:25.849Z,3.03
2018-08-17T10:42:49.771Z,2.83
2018-08-17T10:45:13.677Z,3.10
2018-08-17T10:47:37.606Z,3.20
2018-08-17T10:50:05.156Z,4.67
2018-08-17T10:52:29.036Z,3.40
2018-08-17T10:54:52.993Z,3.47
2018-08-17T10:57:16.860Z,3.23
2018-08-17T10:59:40.745Z,3.10
2018-08-17T11:02:04.658Z,3.17
2018-08-17T11:04:28.661Z,3.33
2018-08-17T11:06:52.511Z,3.60
2018-08-17T11:09:16.444Z,3.17
2018-08-17T11:11:42.689Z,3.20
2018-08-17T11:14:06.563Z,3.10
2018-08-17T11:16:30.433Z,2.80
2018-08-17T11:18:54.328Z,3.27
2018-08-17T11:21:18.242Z,3.43
2018-08-17T11:23:42.144Z,3.40
2018-08-17T11:26:06.026Z,3.42
2018-08-17T11:28:29.901Z,3.90
2018-08-17T11:30:53.881Z,3.17
2018-08-17T11:33:22.870Z,3.42
2018-08-17T11:35:46.713Z,3.52
2018-08-17T11:38:15.147Z,3.62
2018-08-17T11:40:39.171Z,3.37
2018-08-17T11:43:03.037Z,3.42
2018-08-17T11:45:27.762Z,3.75
2018-08-17T11:47:52.222Z,3.70
2018-08-17T11:50:17.751Z,3.47
2018-08-17T11:53:00.845Z,3.42
2018-08-17T11:55:25.797Z,3.50
2018-08-17T11:57:49.812Z,3.70
2018-08-17T12:00:13.726Z,3.42
2018-08-17T12:02:37.612Z,3.50
2018-08-17T12:05:01.568Z,3.47
2018-08-17T12:07:25.481Z,3.20
2018-08-17T12:09:54.713Z,3.40
2018-08-17T12:12:18.691Z,3.27
2018-08-17T12:14:42.795Z,3.10
2018-08-17T12:17:06.743Z,4.03
2018-08-17T12:19:30.696Z,3.70
2018-08-17T12:21:54.629Z,3.50
2018-08-17T12:24:18.591Z,3.25
2018-08-17T12:26:47.637Z,3.70
2018-08-17T12:29:11.515Z,3.40
2018-08-17T12:31:35.402Z,3.08
2018-08-17T12:33:59.311Z,3.52
2018-08-17T12:36:23.227Z,3.20
2018-08-17T12:38:47.088Z,3.12
2018-08-17T12:41:10.967Z,3.02
2018-08-17T12:43:37.786Z,2.85
2018-08-17T12:46:01.742Z,2.90
2018-08-17T12:48:25.666Z,3.45
2018-08-17T12:50:49.542Z,3.30
2018-08-17T12:53:13.547Z,3.37
2018-08-17T12:55:37.443Z,3.00
2018-08-17T12:58:01.312Z,3.27
2018-08-17T13:00:25.201Z,3.00
2018-08-17T13:02:49.139Z,3.00
2018-08-17T13:05:13.009Z,3.00
2018-08-17T13:07:37.126Z,2.58
2018-08-17T13:10:01.092Z,2.90
2018-08-17T13:12:24.976Z,2.50
2018-08-17T13:14:49.391Z,2.52
2018-08-17T13:17:13.299Z,2.58
2018-08-17T13:19:37.109Z,2.72
2018-08-17T13:22:01.017Z,2.45
2018-08-17T13:24:24.918Z,2.67
2018-08-17T13:26:48.835Z,2.22
2018-08-17T13:29:12.717Z,2.47
2018-08-17T13:31:36.640Z,2.87
2018-08-17T13:34:00.819Z,2.17
2018-08-17T13:36:24.714Z,2.75
2018-08-17T13:38:48.640Z,2.65
2018-08-17T13:41:12.579Z,2.37
2018-08-17T13:43:36.607Z,2.50
2018-08-17T13:46:00.543Z,2.47
2018-08-17T13:48:24.377Z,2.58
2018-08-17T13:50:48.250Z,3.10
2018-08-17T13:53:12.118Z,2.70
2018-08-17T13:55:36.021Z,2.87
2018-08-17T13:57:59.863Z,2.95
2018-08-17T14:00:30.466Z,2.70
2018-08-17T14:02:54.401Z,2.62
2018-08-17T14:05:18.394Z,2.85
2018-08-17T14:07:42.733Z,3.00
2018-08-17T14:10:07.800Z,2.98
2018-08-17T14:12:31.621Z,2.70
2018-08-17T14:14:55.516Z,3.20
2018-08-17T14:17:20.257Z,3.10
2018-08-17T14:19:44.184Z,2.47
2018-08-17T14:22:08.104Z,3.00
2018-08-17T14:24:31.996Z,3.35
2018-08-17T14:26:55.877Z,3.10
2018-08-17T14:29:19.946Z,2.80
2018-08-17T14:31:43.890Z,3.02
2018-08-17T14:34:07.743Z,2.62
2018-08-17T14:36:31.635Z,2.02
2018-08-17T14:38:55.575Z,2.13
2018-08-17T14:41:19.511Z,1.92
2018-08-17T14:43:43.424Z,2.60
2018-08-17T14:46:07.412Z,1.80
2018-08-17T14:48:31.888Z,2.00
2018-08-17T14:50:55.875Z,2.05
2018-08-17T14:53:19.774Z,2.00
2018-08-17T14:55:43.700Z,2.30
2018-08-17T14:58:07.654Z,1.70
2018-08-17T15:00:31.573Z,1.50
2018-08-17T15:02:55.452Z,1.77
2018-08-17T15:05:19.581Z,1.60
2018-08-17T15:07:43.569Z,2.20
2018-08-17T15:10:08.459Z,1.70
2018-08-17T15:12:32.354Z,1.65
2018-08-17T15:14:56.264Z,1.60
2018-08-17T15:17:20.206Z,1.97
2018-08-17T15:19:44.078Z,1.82
2018-08-17T15:22:07.948Z,1.70
2018-08-17T15:24:31.909Z,1.67
2018-08-17T15:26:55.791Z,1.80
2018-08-17T15:29:19.691Z,2.03
2018-08-17T15:31:43.621Z,1.60
2018-08-17T15:34:07.554Z,2.80
2018-08-17T15:36:31.444Z,1.63
2018-08-17T15:38:55.545Z,1.92
2018-08-17T15:41:19.446Z,1.72
2018-08-17T15:43:43.417Z,1.70
2018-08-17T15:46:07.392Z,1.90
2018-08-17T15:48:39.063Z,1.80
2018-08-17T15:51:03.002Z,2.10
2018-08-17T15:53:26.846Z,1.80
2018-08-17T15:55:50.770Z,1.73
2018-08-17T15:58:14.669Z,1.45
2018-08-17T16:00:38.634Z,1.20
2018-08-17T16:03:02.478Z,2.27
2018-08-17T16:05:26.419Z,1.30
2018-08-17T16:07:50.366Z,1.20
2018-08-17T16:10:15.279Z,1.30
2018-08-17T16:12:39.370Z,1.77
2018-08-17T16:15:03.388Z,1.30
2018-08-17T16:17:27.279Z,2.07
2018-08-17T16:19:51.238Z,1.57
2018-08-17T16:22:15.166Z,1.50
2018-08-17T16:24:39.142Z,1.87
2018-08-17T16:27:03.023Z,13.40
2018-08-17T16:29:27.148Z,1.97
2018-08-17T16:31:51.180Z,2.23
2018-08-17T16:34:15.072Z,2.10
2018-08-17T16:36:41.096Z,2.10
2018-08-17T16:39:08.619Z,2.77
2018-08-17T16:41:32.558Z,2.00
2018-08-17T16:43:56.475Z,2.30
2018-08-17T16:46:20.436Z,4.80
2018-08-17T16:48:44.379Z,2.10
2018-08-17T16:51:08.258Z,2.30
2018-08-17T16:53:32.700Z,2.50
2018-08-17T16:55:56.617Z,2.57
2018-08-17T16:58:20.531Z,2.00
2018-08-17T17:00:44.484Z,2.50
2018-08-17T17:03:08.331Z,5.60
2018-08-17T17:05:32.246Z,2.83
2018-08-17T17:07:56.166Z,3.03
2018-08-17T17:10:20.143Z,2.80
2018-08-17T17:12:44.164Z,3.00
2018-08-17T17:15:15.184Z,3.47
2018-08-17T17:17:39.093Z,3.17
2018-08-17T17:20:02.933Z,3.30
2018-08-17T17:22:26.857Z,4.27
2018-08-17T17:24:50.768Z,3.90
2018-08-17T17:27:17.279Z,3.83
2018-08-17T17:29:41.184Z,4.00
2018-08-17T17:32:05.763Z,4.10
2018-08-17T17:34:29.868Z,3.80
2018-08-17T17:36:53.807Z,3.97
2018-08-17T17:39:17.700Z,4.50
2018-08-17T17:41:48.257Z,4.10
2018-08-17T17:44:12.197Z,4.20
2018-08-17T17:46:36.140Z,5.53
2018-08-17T17:49:00.067Z,4.70
2018-08-17T17:51:23.910Z,6.17
2018-08-17T17:53:47.776Z,11.13
2018-08-17T17:56:11.705Z,4.77
2018-08-17T17:58:35.600Z,4.90
2018-08-17T18:01:04.833Z,5.10
2018-08-17T18:03:31.703Z,5.43
2018-08-17T18:05:57.019Z,5.10
2018-08-17T18:08:20.983Z,4.83
2018-08-17T18:10:44.893Z,5.10
2018-08-17T18:13:08.841Z,4.80
2018-08-17T18:15:32.713Z,4.57
2018-08-17T18:17:56.687Z,5.90
2018-08-17T18:20:20.639Z,4.43
2018-08-17T18:22:44.595Z,5.80
2018-08-17T18:25:12.675Z,5.50
2018-08-17T18:27:36.679Z,5.27
2018-08-17T18:30:00.819Z,4.40
2018-08-17T18:32:24.703Z,3.83
2018-08-17T18:34:48.641Z,4.00
2018-08-17T18:37:12.587Z,3.90
2018-08-17T18:39:36.500Z,4.20
2018-08-17T18:42:00.393Z,4.00
2018-08-17T18:44:24.293Z,3.97
2018-08-17T18:46:48.233Z,4.23
2018-08-17T18:49:12.253Z,4.17
2018-08-17T18:51:36.271Z,4.60
2018-08-17T18:54:01.020Z,4.40
2018-08-17T18:56:24.952Z,4.20
2018-08-17T18:58:48.845Z,4.30
2018-08-17T19:01:12.728Z,4.30
2018-08-17T19:03:36.712Z,4.43
2018-08-17T19:06:00.627Z,4.20
2018-08-17T19:08:24.512Z,4.67
2018-08-17T19:10:48.470Z,4.90
2018-08-17T19:13:12.444Z,4.83
2018-08-17T19:15:41.535Z,4.70
2018-08-17T19:18:05.421Z,4.50
2018-08-17T19:20:29.335Z,4.37
2018-08-17T19:22:53.265Z,4.67
2018-08-17T19:25:17.233Z,4.70
2018-08-17T19:27:41.731Z,5.10
2018-08-17T19:30:12.364Z,4.70
2018-08-17T19:32:36.329Z,6.10
2018-08-17T19:35:00.244Z,5.47
2018-08-17T19:37:24.212Z,5.80
2018-08-17T19:39:48.319Z,5.50
2018-08-17T19:42:12.475Z,5.40
2018-08-17T19:44:36.473Z,5.27
2018-08-17T19:47:00.418Z,5.00
2018-08-17T19:49:25.301Z,5.50
2018-08-17T19:51:49.197Z,5.90
2018-08-17T19:54:13.108Z,5.77
2018-08-17T19:56:39.059Z,6.40
2018-08-17T19:59:03.070Z,6.00
2018-08-17T20:01:26.991Z,5.63
2018-08-17T20:03:50.894Z,5.37
2018-08-17T20:06:14.832Z,5.33
2018-08-17T20:08:38.758Z,5.10
2018-08-17T20:11:02.645Z,5.87
2018-08-17T20:13:26.593Z,5.47
2018-08-17T20:15:50.533Z,5.57
2018-08-17T20:18:14.397Z,5.50
2018-08-17T20:20:38.428Z,5.40
2018-08-17T20:23:02.846Z,5.30
2018-08-17T20:25:26.740Z,5.80
2018-08-17T20:27:51.020Z,5.60
2018-08-17T20:30:20.547Z,5.73
2018-08-17T20:32:44.640Z,5.80
2018-08-17T20:35:08.619Z,5.73
2018-08-17T20:37:32.536Z,6.07
2018-08-17T20:39:56.445Z,5.77
2018-08-17T20:42:20.925Z,5.53
2018-08-17T20:44:44.837Z,6.30
2018-08-17T20:47:09.432Z,6.10
2018-08-17T20:49:33.365Z,6.30
2018-08-17T20:52:01.323Z,5.33
2018-08-17T20:54:25.204Z,4.83
2018-08-17T20:56:49.312Z,5.67
2018-08-17T20:59:13.156Z,5.83
2018-08-17T21:01:37.025Z,5.80
2018-08-17T21:04:00.978Z,5.80
2018-08-17T21:06:24.843Z,6.00
2018-08-17T21:08:48.833Z,5.53
2018-08-17T21:11:13.048Z,5.60
2018-08-17T21:13:36.973Z,6.73
2018-08-17T21:16:00.927Z,5.90
2018-08-17T21:18:24.867Z,6.03
2018-08-17T21:20:48.793Z,5.30
2018-08-17T21:23:12.652Z,5.20
2018-08-17T21:25:36.598Z,5.27
2018-08-17T21:28:00.505Z,5.33
2018-08-17T21:30:24.364Z,5.40
2018-08-17T21:32:48.296Z,5.20
2018-08-17T21:35:12.190Z,5.07
2018-08-17T21:37:36.161Z,5.40
2018-08-17T21:40:00.040Z,4.93
2018-08-17T21:42:23.930Z,5.37
2018-08-17T21:44:47.886Z,4.93
2018-08-17T21:47:12.411Z,5.37
2018-08-17T21:49:36.850Z,4.90
2018-08-17T21:52:05.466Z,5.80
2018-08-17T21:54:31.507Z,4.20
2018-08-17T21:56:55.417Z,4.47
2018-08-17T21:59:19.436Z,4.13
2018-08-17T22:01:43.497Z,4.13
2018-08-17T22:04:07.407Z,4.50
2018-08-17T22:06:31.271Z,4.47
2018-08-17T22:08:55.181Z,3.83
2018-08-17T22:11:31.120Z,4.27
2018-08-17T22:13:55.013Z,3.87
2018-08-17T22:16:18.951Z,4.60
2018-08-17T22:18:42.886Z,4.37
2018-08-17T22:21:06.761Z,4.33
2018-08-17T22:23:31.406Z,4.87
2018-08-17T22:25:55.333Z,4.37
2018-08-17T22:28:19.206Z,4.60
2018-08-17T22:30:43.138Z,4.50
2018-08-17T22:33:07.076Z,4.37
2018-08-17T22:35:31.062Z,4.50
2018-08-17T22:37:54.843Z,4.53
2018-08-17T22:40:18.732Z,4.73
2018-08-17T22:42:42.696Z,4.30
2018-08-17T22:45:07.038Z,4.57
2018-08-17T22:47:30.962Z,4.23
2018-08-17T22:49:56.799Z,4.43
2018-08-17T22:52:20.828Z,4.23
2018-08-17T22:54:49.844Z,3.93
2018-08-17T22:57:13.751Z,4.03
2018-08-17T22:59:37.696Z,3.60
2018-08-17T23:02:01.612Z,3.33
2018-08-17T23:04:25.491Z,3.70
2018-08-17T23:06:49.428Z,3.53
2018-08-17T23:09:13.287Z,3.70
2018-08-17T23:11:37.885Z,3.73
2018-08-17T23:14:08.786Z,3.47
2018-08-17T23:16:32.646Z,4.20
2018-08-17T23:18:56.540Z,4.30
2018-08-17T23:21:20.920Z,5.37
2018-08-17T23:23:44.828Z,4.87
2018-08-17T23:26:08.666Z,4.70
2018-08-17T23:28:32.569Z,4.90
2018-08-17T23:30:56.439Z,4.43
2018-08-17T23:33:20.280Z,4.00
2018-08-17T23:35:44.170Z,3.90
2018-08-17T23:38:08.071Z,4.43
2018-08-17T23:40:31.959Z,3.93
2018-08-17T23:42:55.876Z,3.70
2018-08-17T23:45:19.822Z,3.97
2018-08-17T23:47:43.734Z,4.17
2018-08-17T23:50:09.007Z,3.73
2018-08-17T23:52:32.852Z,3.53
2018-08-17T23:54:56.687Z,3.60
2018-08-17T23:57:20.622Z,3.50
2018-08-17T23:59:44.497Z,3.87
